Time;durP1;ratioP1;P1;durP2;ratioP2;P2;SDS_P1;SDS_P2;PMS_P1;PMS_P2;Temp;Humidity;BMP_temperature;BMP_pressure;BME280_temperature;BME280_humidity;BME280_pressure;Samples;Min_cycle;Max_cycle;Signal;HPM_P1;HPM_P2
2023/08/03 00:00:06;;;;;;;;;;;26.00;55.50;;;;;;5092207;28;20023;-56
2023/08/03 00:02:34;;;;;;;;;;;26.00;55.50;;;;;;5092039;28;20020;-55
2023/08/03 00:05:02;;;;;;;;;;;26.00;55.50;;;;;;5092515;28;20304;-56
2023/08/03 00:07:30;;;;;;;;;;;26.00;55.50;;;;;;5093167;28;19924;-56
2023/08/03 00:09:57;;;;;;;;;;;25.90;55.50;;;;;;5092103;28;19967;-57
2023/08/03 00:12:24;;;;;;;;;;;26.00;55.60;;;;;;5091518;28;19978;-57
2023/08/03 00:14:52;;;;;;;;;;;26.00;55.50;;;;;;5091981;28;19931;-57
2023/08/03 00:17:19;;;;;;;;;;;26.00;55.60;;;;;;5095458;28;20061;-56
2023/08/03 00:19:46;;;;;;;;;;;25.90;55.50;;;;;;5096163;28;19977;-56
2023/08/03 00:22:13;;;;;;;;;;;25.90;55.50;;;;;;5096413;28;19964;-56
2023/08/03 00:24:40;;;;;;;;;;;25.90;55.60;;;;;;5095551;28;20018;-58
2023/08/03 00:27:07;;;;;;;;;;;25.90;55.50;;;;;;5096132;28;20322;-56
2023/08/03 00:29:34;;;;;;;;;;;25.90;55.50;;;;;;5095587;28;19927;-56
2023/08/03 00:32:01;;;;;;;;;;;25.90;55.50;;;;;;5095508;28;19924;-55
2023/08/03 00:34:29;;;;;;;;;;;25.90;55.50;;;;;;5095406;28;20007;-56
2023/08/03 00:36:57;;;;;;;;;;;25.90;55.50;;;;;;5095006;28;19969;-56
2023/08/03 00:39:24;;;;;;;;;;;25.90;55.50;;;;;;5096436;28;19924;-56
2023/08/03 00:41:51;;;;;;;;;;;25.90;55.60;;;;;;5095168;28;20465;-56
2023/08/03 00:44:18;;;;;;;;;;;25.90;55.60;;;;;;5095472;28;19971;-56
2023/08/03 00:46:45;;;;;;;;;;;25.90;55.60;;;;;;5095341;28;19954;-57
2023/08/03 00:49:12;;;;;;;;;;;25.90;55.60;;;;;;5095162;28;20334;-56
2023/08/03 00:51:39;;;;;;;;;;;25.90;55.60;;;;;;5095627;28;19928;-56
2023/08/03 00:54:07;;;;;;;;;;;25.90;55.60;;;;;;5095052;28;19924;-56
2023/08/03 00:56:35;;;;;;;;;;;25.90;55.60;;;;;;5094279;28;19954;-57
2023/08/03 00:59:02;;;;;;;;;;;25.90;55.50;;;;;;5095273;28;19930;-56
2023/08/03 01:01:29;;;;;;;;;;;25.90;55.50;;;;;;5094605;28;20389;-55
2023/08/03 01:03:56;;;;;;;;;;;25.90;55.50;;;;;;5094434;28;19971;-55
2023/08/03 01:06:23;;;;;;;;;;;25.90;55.50;;;;;;5094330;28;19975;-56
2023/08/03 01:08:50;;;;;;;;;;;25.90;55.50;;;;;;5094735;28;19971;-57
2023/08/03 01:11:17;;;;;;;;;;;25.90;55.40;;;;;;5094913;28;20372;-56
2023/08/03 01:13:44;;;;;;;;;;;25.90;55.40;;;;;;5094799;28;19928;-56
2023/08/03 01:16:11;;;;;;;;;;;25.90;55.40;;;;;;5094126;28;19979;-57
2023/08/03 01:18:42;;;;;;;;;;;25.90;55.40;;;;;;5095140;28;19938;-55
2023/08/03 01:21:09;;;;;;;;;;;25.90;55.40;;;;;;5095073;28;20354;-57
2023/08/03 01:23:36;;;;;;;;;;;25.90;55.40;;;;;;5095569;28;19978;-56
2023/08/03 01:26:03;;;;;;;;;;;25.90;55.40;;;;;;5094537;28;20012;-56
2023/08/03 01:28:30;;;;;;;;;;;25.90;55.40;;;;;;5095002;28;20007;-55
2023/08/03 01:30:58;;;;;;;;;;;25.90;55.40;;;;;;5094340;28;19989;-56
2023/08/03 01:33:25;;;;;;;;;;;25.90;55.40;;;;;;5094931;28;19928;-57
2023/08/03 01:35:52;;;;;;;;;;;25.90;55.40;;;;;;5094680;28;19924;-56
2023/08/03 01:38:19;;;;;;;;;;;25.90;55.40;;;;;;5093648;28;20009;-56
2023/08/03 01:40:46;;;;;;;;;;;25.90;55.40;;;;;;5094316;28;19970;-56
2023/08/03 01:43:14;;;;;;;;;;;25.90;55.40;;;;;;5093785;28;20291;-55
2023/08/03 01:45:41;;;;;;;;;;;25.90;55.40;;;;;;5094290;28;20004;-57
2023/08/03 01:48:08;;;;;;;;;;;25.90;55.40;;;;;;5093261;28;20011;-55
2023/08/03 01:50:35;;;;;;;;;;;25.90;55.40;;;;;;5094383;28;19928;-57
2023/08/03 01:53:02;;;;;;;;;;;25.90;55.40;;;;;;5094321;28;20011;-55
2023/08/03 01:55:29;;;;;;;;;;;25.80;55.40;;;;;;5094198;28;20313;-55
2023/08/03 01:57:56;;;;;;;;;;;25.90;55.50;;;;;;5093514;28;20395;-56
2023/08/03 02:00:24;;;;;;;;;;;25.90;55.50;;;;;;5094641;28;20348;-56
2023/08/03 02:02:51;;;;;;;;;;;25.90;55.50;;;;;;5094138;28;20359;-57
2023/08/03 02:05:18;;;;;;;;;;;25.90;55.50;;;;;;5094308;28;19930;-56
2023/08/03 02:07:53;;;;;;;;;;;25.90;55.50;;;;;;5094123;28;19928;-56
2023/08/03 02:10:21;;;;;;;;;;;25.90;55.50;;;;;;5093583;28;19963;-56
2023/08/03 02:12:48;;;;;;;;;;;25.80;55.40;;;;;;5093760;28;20400;-56
2023/08/03 02:15:15;;;;;;;;;;;25.80;55.40;;;;;;5093989;28;19979;-56
2023/08/03 02:17:43;;;;;;;;;;;25.80;55.40;;;;;;5093616;28;19924;-56
2023/08/03 02:20:11;;;;;;;;;;;25.80;55.40;;;;;;5092537;28;20360;-56
2023/08/03 02:22:38;;;;;;;;;;;25.90;55.50;;;;;;5093540;28;19924;-56
2023/08/03 02:25:05;;;;;;;;;;;25.80;55.40;;;;;;5094054;28;19977;-57
2023/08/03 02:27:32;;;;;;;;;;;25.80;55.50;;;;;;5093478;28;19924;-57
2023/08/03 02:29:59;;;;;;;;;;;25.80;55.50;;;;;;5092032;28;20664;-59
2023/08/03 02:32:27;;;;;;;;;;;25.90;55.50;;;;;;5094004;28;19977;-57
2023/08/03 02:34:54;;;;;;;;;;;25.80;55.50;;;;;;5093766;28;19924;-55
2023/08/03 02:37:21;;;;;;;;;;;25.80;55.50;;;;;;5093465;28;20284;-56
2023/08/03 02:39:48;;;;;;;;;;;25.80;55.50;;;;;;5093364;28;19970;-56
2023/08/03 02:42:16;;;;;;;;;;;25.80;55.50;;;;;;5093423;28;20388;-56
2023/08/03 02:44:43;;;;;;;;;;;25.80;55.50;;;;;;5092819;28;19924;-57
2023/08/03 02:47:09;;;;;;;;;;;25.80;55.50;;;;;;5093829;28;20015;-56
2023/08/03 02:49:36;;;;;;;;;;;25.80;55.50;;;;;;5093623;28;19975;-56
2023/08/03 02:52:04;;;;;;;;;;;25.80;55.50;;;;;;5093304;28;19939;-55
2023/08/03 02:54:31;;;;;;;;;;;25.80;55.50;;;;;;5093016;28;20422;-56
2023/08/03 02:56:58;;;;;;;;;;;25.80;55.50;;;;;;5093701;28;20011;-57
2023/08/03 02:59:25;;;;;;;;;;;25.80;55.50;;;;;;5093231;28;19924;-56
2023/08/03 03:01:51;;;;;;;;;;;25.80;55.50;;;;;;5092298;28;19939;-57
2023/08/03 03:04:18;;;;;;;;;;;25.80;55.50;;;;;;5093829;28;19924;-56
2023/08/03 03:06:46;;;;;;;;;;;25.80;55.50;;;;;;5093466;28;19971;-56
2023/08/03 03:09:13;;;;;;;;;;;25.80;55.50;;;;;;5092684;28;19963;-57
2023/08/03 03:11:40;;;;;;;;;;;25.80;55.50;;;;;;5093164;28;20015;-56
2023/08/03 03:14:07;;;;;;;;;;;25.80;55.50;;;;;;5093291;28;19924;-57
2023/08/03 03:16:34;;;;;;;;;;;25.80;55.50;;;;;;5093026;28;20448;-56
2023/08/03 03:19:01;;;;;;;;;;;25.80;55.50;;;;;;5092982;28;20015;-57
2023/08/03 03:21:28;;;;;;;;;;;25.80;55.40;;;;;;5092990;28;19975;-57
2023/08/03 03:23:55;;;;;;;;;;;25.80;55.40;;;;;;5092856;28;19924;-57
2023/08/03 03:26:22;;;;;;;;;;;25.80;55.40;;;;;;5093488;28;20429;-57
2023/08/03 03:28:49;;;;;;;;;;;25.80;55.40;;;;;;5092722;28;19924;-57
2023/08/03 03:31:16;;;;;;;;;;;25.80;55.40;;;;;;5092831;28;19977;-56
2023/08/03 03:33:43;;;;;;;;;;;25.80;55.40;;;;;;5093233;28;20039;-56
2023/08/03 03:36:10;;;;;;;;;;;25.80;55.40;;;;;;5093464;28;19984;-58
2023/08/03 03:38:37;;;;;;;;;;;25.90;55.40;;;;;;5092916;28;20376;-55
2023/08/03 03:41:04;;;;;;;;;;;25.90;55.40;;;;;;5093283;28;19924;-56
2023/08/03 03:43:32;;;;;;;;;;;25.90;55.40;;;;;;5092925;28;19977;-56
2023/08/03 03:45:59;;;;;;;;;;;25.80;55.30;;;;;;5093393;28;19924;-56
2023/08/03 03:48:26;;;;;;;;;;;25.90;55.30;;;;;;5093109;28;19927;-56
2023/08/03 03:50:53;;;;;;;;;;;25.90;55.30;;;;;;5094165;28;20396;-56
2023/08/03 03:53:20;;;;;;;;;;;25.90;55.30;;;;;;5097171;28;19972;-56
2023/08/03 03:55:47;;;;;;;;;;;25.90;55.30;;;;;;5097432;28;20309;-56
2023/08/03 03:58:14;;;;;;;;;;;25.90;55.20;;;;;;5096990;28;20018;-58
2023/08/03 04:00:41;;;;;;;;;;;25.90;55.20;;;;;;5097299;28;19985;-57
2023/08/03 04:03:08;;;;;;;;;;;25.90;55.20;;;;;;5096953;28;20372;-56
2023/08/03 04:05:36;;;;;;;;;;;25.90;55.20;;;;;;5088252;28;19925;-55
2023/08/03 04:08:04;;;;;;;;;;;25.90;55.10;;;;;;5083264;28;20368;-57
2023/08/03 04:10:31;;;;;;;;;;;25.90;55.10;;;;;;5096362;28;19924;-56
2023/08/03 04:12:58;;;;;;;;;;;25.90;55.10;;;;;;5096893;28;19963;-57
2023/08/03 04:15:25;;;;;;;;;;;26.00;55.10;;;;;;5096574;28;19997;-55
2023/08/03 04:17:52;;;;;;;;;;;26.00;55.10;;;;;;5096396;28;19954;-57
2023/08/03 04:20:19;;;;;;;;;;;26.00;55.10;;;;;;5096932;28;19971;-57
2023/08/03 04:22:46;;;;;;;;;;;26.00;55.00;;;;;;5091939;28;19963;-57
2023/08/03 04:25:13;;;;;;;;;;;26.00;55.00;;;;;;5085632;28;20377;-56
2023/08/03 04:27:40;;;;;;;;;;;26.00;55.00;;;;;;5076177;28;20014;-56
2023/08/03 04:30:10;;;;;;;;;;;26.00;54.90;;;;;;5078809;28;20442;-56
2023/08/03 04:32:37;;;;;;;;;;;26.00;54.90;;;;;;5083746;28;19935;-56
2023/08/03 04:35:04;;;;;;;;;;;26.00;54.80;;;;;;5084588;28;19930;-55
2023/08/03 04:37:31;;;;;;;;;;;26.00;54.80;;;;;;5075377;28;20416;-57
2023/08/03 04:39:58;;;;;;;;;;;25.90;55.00;;;;;;5087674;28;19950;-55
2023/08/03 04:42:26;;;;;;;;;;;25.90;55.30;;;;;;5104263;28;19979;-57
2023/08/03 04:44:53;;;;;;;;;;;25.70;55.60;;;;;;5084027;28;20006;-56
2023/08/03 04:47:20;;;;;;;;;;;25.50;55.50;;;;;;5075185;28;20019;-56
2023/08/03 04:49:47;;;;;;;;;;;25.30;54.70;;;;;;5075036;28;20274;-56
2023/08/03 04:52:14;;;;;;;;;;;25.00;53.30;;;;;;5078255;28;20027;-56
2023/08/03 04:54:41;;;;;;;;;;;24.70;52.50;;;;;;5074586;28;20011;-56
2023/08/03 04:57:08;;;;;;;;;;;24.40;51.50;;;;;;5075502;28;20019;-56
2023/08/03 04:59:35;;;;;;;;;;;24.10;50.80;;;;;;5075250;28;19971;-56
2023/08/03 05:02:02;;;;;;;;;;;23.90;50.90;;;;;;5074621;28;19925;-57
2023/08/03 05:04:29;;;;;;;;;;;23.60;50.20;;;;;;5075119;28;20262;-57
2023/08/03 05:06:57;;;;;;;;;;;23.30;50.00;;;;;;5073540;28;20365;-57
2023/08/03 05:09:24;;;;;;;;;;;23.00;50.50;;;;;;5074555;28;20393;-57
2023/08/03 05:11:51;;;;;;;;;;;22.80;50.10;;;;;;5072890;28;20007;-57
2023/08/03 05:14:18;;;;;;;;;;;22.60;49.10;;;;;;5078519;28;19925;-56
2023/08/03 05:16:44;;;;;;;;;;;22.30;50.50;;;;;;5082817;28;20340;-56
2023/08/03 05:19:12;;;;;;;;;;;22.10;50.30;;;;;;5091664;28;20197;-58
2023/08/03 05:21:39;;;;;;;;;;;21.90;51.10;;;;;;5087656;28;19969;-60
2023/08/03 05:24:06;;;;;;;;;;;21.70;52.20;;;;;;5085281;28;19924;-61
2023/08/03 05:26:33;;;;;;;;;;;21.60;51.80;;;;;;5083132;28;19924;-60
2023/08/03 05:29:00;;;;;;;;;;;21.40;52.30;;;;;;5074312;28;19924;-60
2023/08/03 05:31:28;;;;;;;;;;;21.30;52.30;;;;;;5068737;28;19985;-59
2023/08/03 05:33:55;;;;;;;;;;;21.20;52.60;;;;;;5068849;28;20015;-62
2023/08/03 05:36:23;;;;;;;;;;;21.20;53.00;;;;;;5067968;28;20015;-62
2023/08/03 05:38:53;;;;;;;;;;;21.10;53.10;;;;;;5070411;28;19935;-62
2023/08/03 05:41:21;;;;;;;;;;;21.00;53.70;;;;;;5065407;28;19936;-63
2023/08/03 05:43:49;;;;;;;;;;;20.90;53.60;;;;;;5068423;28;19978;-63
2023/08/03 05:46:17;;;;;;;;;;;20.90;53.50;;;;;;5070820;28;19990;-62
2023/08/03 05:48:47;;;;;;;;;;;20.90;54.00;;;;;;5070805;28;21150;-63
2023/08/03 05:51:19;;;;;;;;;;;20.80;53.90;;;;;;5069893;28;20016;-63
2023/08/03 05:53:46;;;;;;;;;;;20.70;54.20;;;;;;5075867;28;19925;-63
2023/08/03 05:56:12;;;;;;;;;;;20.60;54.90;;;;;;5074640;28;20292;-63
2023/08/03 05:58:40;;;;;;;;;;;20.60;55.20;;;;;;5070477;28;19955;-64
2023/08/03 06:01:10;;;;;;;;;;;20.60;55.10;;;;;;5076857;28;19932;-63
2023/08/03 06:03:39;;;;;;;;;;;20.60;55.30;;;;;;5076542;28;19960;-65
2023/08/03 06:06:09;;;;;;;;;;;20.60;55.20;;;;;;5079443;28;20011;-63
2023/08/03 06:08:36;;;;;;;;;;;20.60;55.80;;;;;;5073666;28;19964;-62
2023/08/03 06:11:07;;;;;;;;;;;20.60;55.60;;;;;;5073284;28;19932;-62
2023/08/03 06:13:34;;;;;;;;;;;20.60;56.10;;;;;;5076120;28;20039;-62
2023/08/03 06:16:12;;;;;;;;;;;20.60;55.60;;;;;;5072209;28;19928;-63
2023/08/03 06:18:45;;;;;;;;;;;20.60;56.90;;;;;;5079805;28;19924;-63
2023/08/03 06:21:12;;;;;;;;;;;20.60;56.70;;;;;;5059171;28;19997;-61
2023/08/03 06:23:39;;;;;;;;;;;20.60;56.60;;;;;;5070697;28;19963;-61
2023/08/03 06:26:11;;;;;;;;;;;20.60;57.00;;;;;;5070010;28;20023;-61
2023/08/03 06:28:38;;;;;;;;;;;20.60;58.90;;;;;;5071639;28;19968;-60
2023/08/03 06:31:15;;;;;;;;;;;20.60;59.20;;;;;;5074632;28;20331;-62
2023/08/03 06:33:43;;;;;;;;;;;20.60;57.40;;;;;;5078153;28;19925;-63
2023/08/03 06:36:12;;;;;;;;;;;20.70;60.50;;;;;;5070821;28;19924;-62
2023/08/03 06:38:40;;;;;;;;;;;20.70;58.20;;;;;;5073996;28;20014;-63
2023/08/03 06:41:08;;;;;;;;;;;20.70;57.00;;;;;;5072088;28;19986;-62
2023/08/03 06:43:35;;;;;;;;;;;20.70;59.80;;;;;;5073589;28;19932;-62
2023/08/03 06:46:02;;;;;;;;;;;20.70;57.90;;;;;;5074259;28;20026;-61
2023/08/03 06:48:30;;;;;;;;;;;20.80;58.60;;;;;;5071986;28;20424;-63
2023/08/03 06:50:57;;;;;;;;;;;20.80;60.60;;;;;;5072656;28;19932;-64
2023/08/03 06:53:24;;;;;;;;;;;20.80;58.90;;;;;;5071229;28;19924;-60
2023/08/03 06:55:51;;;;;;;;;;;20.90;60.40;;;;;;5074758;28;20004;-62
2023/08/03 06:58:18;;;;;;;;;;;20.90;58.60;;;;;;5058076;28;19932;-62
2023/08/03 07:00:46;;;;;;;;;;;21.00;58.60;;;;;;5077319;28;20015;-65
2023/08/03 07:03:13;;;;;;;;;;;21.00;58.80;;;;;;5079709;28;20364;-62
2023/08/03 07:05:40;;;;;;;;;;;21.00;58.70;;;;;;5074108;28;19924;-62
2023/08/03 07:08:08;;;;;;;;;;;21.10;59.40;;;;;;5073993;28;19974;-65
2023/08/03 07:10:35;;;;;;;;;;;21.10;58.50;;;;;;5071505;28;19932;-62
2023/08/03 07:13:04;;;;;;;;;;;21.20;59.20;;;;;;5066085;28;19924;-63
2023/08/03 07:15:33;;;;;;;;;;;21.20;61.00;;;;;;5074641;28;20015;-62
2023/08/03 07:18:02;;;;;;;;;;;21.20;58.60;;;;;;5077112;28;19931;-62
2023/08/03 07:20:29;;;;;;;;;;;21.30;59.50;;;;;;5070783;28;19932;-63
2023/08/03 07:22:56;;;;;;;;;;;21.30;59.80;;;;;;5075245;28;19928;-62
2023/08/03 07:25:24;;;;;;;;;;;21.30;61.90;;;;;;5075020;28;20360;-62
2023/08/03 07:27:51;;;;;;;;;;;21.40;60.60;;;;;;5077918;28;20092;-62
2023/08/03 07:30:19;;;;;;;;;;;21.40;59.30;;;;;;5079469;28;20040;-62
2023/08/03 07:32:46;;;;;;;;;;;21.40;59.60;;;;;;5083210;28;20036;-62
2023/08/03 07:35:13;;;;;;;;;;;21.40;59.50;;;;;;5078836;28;19936;-64
2023/08/03 07:37:41;;;;;;;;;;;21.50;60.40;;;;;;5074516;28;19932;-63
2023/08/03 07:40:09;;;;;;;;;;;21.50;59.10;;;;;;5077059;28;20354;-62
2023/08/03 07:42:36;;;;;;;;;;;21.50;59.40;;;;;;5081672;28;20007;-62
2023/08/03 07:45:03;;;;;;;;;;;21.60;59.80;;;;;;5080880;28;19998;-62
2023/08/03 07:47:31;;;;;;;;;;;21.60;58.80;;;;;;5081154;28;19928;-62
2023/08/03 07:49:59;;;;;;;;;;;21.70;60.00;;;;;;5076715;28;19959;-63
2023/08/03 07:52:26;;;;;;;;;;;21.70;58.90;;;;;;5083735;28;20339;-62
2023/08/03 07:54:54;;;;;;;;;;;21.80;59.50;;;;;;5075374;28;20023;-63
2023/08/03 07:57:21;;;;;;;;;;;21.80;58.70;;;;;;5073312;28;19928;-62
2023/08/03 07:59:49;;;;;;;;;;;21.80;60.20;;;;;;5077240;28;19932;-62
2023/08/03 08:02:17;;;;;;;;;;;21.80;59.20;;;;;;5074686;28;19956;-62
2023/08/03 08:04:47;;;;;;;;;;;21.90;59.90;;;;;;5079372;28;20018;-63
2023/08/03 08:07:15;;;;;;;;;;;21.90;60.20;;;;;;5082139;28;19924;-63
2023/08/03 08:09:42;;;;;;;;;;;21.90;60.70;;;;;;5075770;28;19932;-65
2023/08/03 08:12:08;;;;;;;;;;;21.90;60.40;;;;;;5075463;28;19928;-65
2023/08/03 08:14:36;;;;;;;;;;;21.80;59.40;;;;;;5069082;28;19928;-64
2023/08/03 08:17:03;;;;;;;;;;;21.90;61.10;;;;;;5072580;28;19972;-64
2023/08/03 08:19:33;;;;;;;;;;;21.90;60.40;;;;;;5076213;28;20386;-64
2023/08/03 08:22:00;;;;;;;;;;;21.90;59.00;;;;;;5070364;28;19994;-64
2023/08/03 08:24:41;;;;;;;;;;;21.90;58.70;;;;;;5081517;28;19967;-65
2023/08/03 08:27:08;;;;;;;;;;;22.00;59.50;;;;;;5070863;28;19960;-67
2023/08/03 08:29:37;;;;;;;;;;;22.00;58.80;;;;;;5076085;28;19924;-65
2023/08/03 08:32:05;;;;;;;;;;;22.00;58.00;;;;;;5076413;28;20351;-65
2023/08/03 08:34:32;;;;;;;;;;;22.00;58.40;;;;;;5076929;28;19975;-64
2023/08/03 08:36:59;;;;;;;;;;;22.00;58.70;;;;;;5073115;28;19929;-67
2023/08/03 08:39:29;;;;;;;;;;;22.00;58.90;;;;;;5080806;28;20347;-65
2023/08/03 08:41:56;;;;;;;;;;;22.00;57.70;;;;;;5076907;28;19931;-64
2023/08/03 08:44:23;;;;;;;;;;;22.00;57.20;;;;;;5072664;28;20389;-64
2023/08/03 08:46:50;;;;;;;;;;;22.00;57.70;;;;;;5078229;28;19924;-64
2023/08/03 08:51:49;;;;;;;;;;;22.00;57.40;;;;;;5071055;28;19932;-64
2023/08/03 08:54:19;;;;;;;;;;;22.00;58.40;;;;;;5080165;28;19974;-66
2023/08/03 08:56:46;;;;;;;;;;;22.00;58.70;;;;;;5077734;28;19955;-64
2023/08/03 08:59:16;;;;;;;;;;;22.00;58.20;;;;;;5076476;28;20371;-65
2023/08/03 09:01:49;;;;;;;;;;;22.00;58.20;;;;;;5076320;28;19928;-65
2023/08/03 09:04:27;;;;;;;;;;;22.00;56.90;;;;;;5077917;28;19986;-64
2023/08/03 09:06:57;;;;;;;;;;;22.00;57.00;;;;;;5071189;28;19928;-64
2023/08/03 09:09:27;;;;;;;;;;;22.00;58.10;;;;;;5078068;28;19932;-65
2023/08/03 09:11:55;;;;;;;;;;;22.00;57.40;;;;;;5078137;28;20332;-64
2023/08/03 09:14:23;;;;;;;;;;;21.90;57.80;;;;;;5079358;28;19936;-64
2023/08/03 09:16:50;;;;;;;;;;;22.00;58.00;;;;;;5074787;28;20673;-63
2023/08/03 09:19:37;;;;;;;;;;;21.90;57.20;;;;;;5076734;28;20387;-63
2023/08/03 09:22:05;;;;;;;;;;;21.90;58.90;;;;;;5081287;28;19932;-65
2023/08/03 09:24:32;;;;;;;;;;;21.90;58.90;;;;;;5071622;28;19932;-64
2023/08/03 09:27:01;;;;;;;;;;;21.90;58.00;;;;;;5069352;28;19943;-64
2023/08/03 09:29:30;;;;;;;;;;;22.00;58.40;;;;;;5076059;28;20404;-64
2023/08/03 09:31:59;;;;;;;;;;;22.00;57.10;;;;;;5074357;28;19942;-64
2023/08/03 09:34:44;;;;;;;;;;;22.00;57.40;;;;;;5074491;28;20450;-65
2023/08/03 09:37:13;;;;;;;;;;;22.10;59.00;;;;;;5075039;28;19935;-64
2023/08/03 09:39:53;;;;;;;;;;;22.10;59.40;;;;;;5077244;28;19935;-65
2023/08/03 09:42:23;;;;;;;;;;;22.10;57.80;;;;;;5074515;28;19932;-64
2023/08/03 09:44:53;;;;;;;;;;;22.10;57.00;;;;;;5073315;28;19928;-64
2023/08/03 09:47:21;;;;;;;;;;;22.20;57.70;;;;;;5073369;28;19986;-63
2023/08/03 09:49:50;;;;;;;;;;;22.10;57.90;;;;;;5077107;28;20395;-64
2023/08/03 09:52:21;;;;;;;;;;;22.20;57.10;;;;;;5080640;28;19963;-63
2023/08/03 09:55:20;;;;;;;;;;;22.20;57.00;;;;;;5074353;28;19927;-65
2023/08/03 09:58:02;;;;;;;;;;;22.20;57.10;;;;;;5074123;28;19950;-64
2023/08/03 10:00:30;;;;;;;;;;;22.20;56.90;;;;;;5081336;28;19971;-67
2023/08/03 10:03:09;;;;;;;;;;;22.20;56.80;;;;;;5077833;28;19925;-64
2023/08/03 10:05:39;;;;;;;;;;;22.20;56.40;;;;;;5081792;28;19935;-65
2023/08/03 10:08:10;;;;;;;;;;;22.20;56.50;;;;;;5083061;28;19973;-64
2023/08/03 10:10:42;;;;;;;;;;;22.20;56.50;;;;;;5077221;28;20327;-63
2023/08/03 10:13:10;;;;;;;;;;;22.20;55.80;;;;;;5072488;28;19942;-64
2023/08/03 10:15:38;;;;;;;;;;;22.10;58.60;;;;;;5079263;28;19936;-64
2023/08/03 10:18:05;;;;;;;;;;;22.10;56.70;;;;;;5085408;28;19965;-65
2023/08/03 10:20:34;;;;;;;;;;;22.10;57.00;;;;;;5096180;28;20008;-64
2023/08/03 10:23:19;;;;;;;;;;;22.10;56.80;;;;;;5076727;28;19925;-64
2023/08/03 10:25:57;;;;;;;;;;;22.10;57.90;;;;;;5074438;28;19928;-63
2023/08/03 10:28:43;;;;;;;;;;;22.00;56.80;;;;;;5083334;28;19935;-63
2023/08/03 10:31:14;;;;;;;;;;;22.00;56.30;;;;;;5076623;28;19970;-63
2023/08/03 10:34:06;;;;;;;;;;;22.00;57.10;;;;;;5075349;28;19959;-63
2023/08/03 10:36:38;;;;;;;;;;;22.00;56.40;;;;;;5076624;28;19963;-63
2023/08/03 10:39:09;;;;;;;;;;;22.00;57.20;;;;;;5085918;28;19924;-64
2023/08/03 10:41:37;;;;;;;;;;;22.00;57.00;;;;;;5070096;28;19959;-64
2023/08/03 10:44:23;;;;;;;;;;;22.00;57.10;;;;;;5074543;28;19924;-63
2023/08/03 10:46:51;;;;;;;;;;;21.90;56.50;;;;;;5069822;28;20011;-63
2023/08/03 10:49:38;;;;;;;;;;;21.90;56.40;;;;;;5077327;28;19967;-63
2023/08/03 10:52:16;;;;;;;;;;;21.90;56.50;;;;;;5074254;28;20068;-63
2023/08/03 10:54:45;;;;;;;;;;;21.90;56.10;;;;;;5068191;28;19931;-64
2023/08/03 10:57:13;;;;;;;;;;;21.90;57.30;;;;;;5070787;28;20377;-64
2023/08/03 10:59:50;;;;;;;;;;;21.90;56.70;;;;;;5073882;28;19935;-63
2023/08/03 11:02:25;;;;;;;;;;;21.90;56.70;;;;;;5072309;28;20316;-62
2023/08/03 11:04:53;;;;;;;;;;;21.90;57.50;;;;;;5080980;28;19924;-63
2023/08/03 11:07:22;;;;;;;;;;;22.00;56.40;;;;;;5073893;28;19928;-63
2023/08/03 11:09:51;;;;;;;;;;;22.00;57.20;;;;;;5075253;28;19968;-63
2023/08/03 11:12:22;;;;;;;;;;;22.00;54.60;;;;;;5075781;28;20388;-63
2023/08/03 11:14:51;;;;;;;;;;;22.00;54.80;;;;;;5080355;28;20419;-63
2023/08/03 11:17:25;;;;;;;;;;;22.00;54.30;;;;;;5069401;28;19928;-63
2023/08/03 11:19:53;;;;;;;;;;;22.00;56.70;;;;;;5071139;28;19939;-63
2023/08/03 11:22:21;;;;;;;;;;;22.00;55.30;;;;;;5075422;28;19974;-62
2023/08/03 11:24:54;;;;;;;;;;;22.00;55.30;;;;;;5081303;28;19963;-59
2023/08/03 11:27:22;;;;;;;;;;;22.00;55.00;;;;;;5069514;28;19931;-59
2023/08/03 11:29:50;;;;;;;;;;;22.00;55.40;;;;;;5079233;28;19928;-57
2023/08/03 11:32:24;;;;;;;;;;;22.00;55.30;;;;;;5077195;28;19967;-59
2023/08/03 11:35:03;;;;;;;;;;;21.90;55.10;;;;;;5079261;28;19924;-59
2023/08/03 11:37:31;;;;;;;;;;;21.90;55.60;;;;;;5071083;28;19928;-58
2023/08/03 11:40:00;;;;;;;;;;;21.90;55.50;;;;;;5071530;28;19932;-59
2023/08/03 11:42:28;;;;;;;;;;;21.90;57.10;;;;;;5077150;28;19932;-61
2023/08/03 11:44:55;;;;;;;;;;;21.90;55.40;;;;;;5079966;28;19931;-59
2023/08/03 11:47:23;;;;;;;;;;;21.90;56.40;;;;;;5069054;28;19931;-59
2023/08/03 11:49:52;;;;;;;;;;;21.90;55.60;;;;;;5072349;28;20384;-59
2023/08/03 11:52:20;;;;;;;;;;;21.90;54.90;;;;;;5074913;28;19932;-59
2023/08/03 11:54:48;;;;;;;;;;;21.90;55.50;;;;;;5075776;28;20011;-60
2023/08/03 12:00:03;;;;;;;;;;;21.90;56.70;;;;;;5078817;28;19980;-60
2023/08/03 12:02:41;;;;;;;;;;;21.90;56.50;;;;;;5067832;28;19933;-59
2023/08/03 12:05:08;;;;;;;;;;;21.90;57.70;;;;;;5072597;28;19928;-60
2023/08/03 12:07:43;;;;;;;;;;;21.90;56.40;;;;;;5077090;28;20369;-60
2023/08/03 12:10:30;;;;;;;;;;;21.90;57.70;;;;;;5075497;28;19925;-59
2023/08/03 12:12:57;;;;;;;;;;;21.90;56.80;;;;;;5079722;28;19978;-59
2023/08/03 12:15:28;;;;;;;;;;;21.90;54.90;;;;;;5082277;28;19929;-58
2023/08/03 12:18:01;;;;;;;;;;;21.90;56.10;;;;;;5076856;28;20356;-58
2023/08/03 12:20:28;;;;;;;;;;;21.90;55.80;;;;;;5083313;28;20296;-58
2023/08/03 12:22:55;;;;;;;;;;;22.00;57.20;;;;;;5081894;28;19924;-52
2023/08/03 12:25:28;;;;;;;;;;;22.00;57.40;;;;;;5082797;28;20345;-57
2023/08/03 12:27:57;;;;;;;;;;;22.00;57.10;;;;;;5085625;28;19947;-58
2023/08/03 12:30:24;;;;;;;;;;;21.90;56.70;;;;;;5074680;28;19929;-59
2023/08/03 12:32:51;;;;;;;;;;;21.90;58.60;;;;;;5072625;28;20385;-61
2023/08/03 12:35:18;;;;;;;;;;;21.90;57.90;;;;;;5080246;28;19928;-58
2023/08/03 12:37:46;;;;;;;;;;;21.90;57.70;;;;;;5080240;28;19932;-57
2023/08/03 12:40:14;;;;;;;;;;;21.90;56.50;;;;;;5098436;27;19928;-58
2023/08/03 12:42:41;;;;;;;;;;;21.90;57.40;;;;;;5076852;28;19971;-56
2023/08/03 12:45:08;;;;;;;;;;;22.00;57.80;;;;;;5078053;28;20039;-58
2023/08/03 12:47:36;;;;;;;;;;;21.90;56.60;;;;;;5076524;28;20028;-56
2023/08/03 12:50:04;;;;;;;;;;;22.00;56.30;;;;;;5072656;28;20368;-58
2023/08/03 12:52:32;;;;;;;;;;;22.00;57.40;;;;;;5076322;28;19924;-59
2023/08/03 12:54:59;;;;;;;;;;;22.10;58.00;;;;;;5073443;28;19971;-58
2023/08/03 12:57:26;;;;;;;;;;;22.10;57.90;;;;;;5079148;28;19924;-60
2023/08/03 12:59:53;;;;;;;;;;;22.10;56.80;;;;;;5078279;28;20741;-59
2023/08/03 13:02:20;;;;;;;;;;;22.10;59.20;;;;;;5075824;28;19928;-58
2023/08/03 13:04:52;;;;;;;;;;;22.20;56.20;;;;;;5081069;28;19929;-59
2023/08/03 13:07:19;;;;;;;;;;;22.20;58.60;;;;;;5078538;28;20415;-60
2023/08/03 13:09:47;;;;;;;;;;;22.20;57.90;;;;;;5076371;28;20015;-60
2023/08/03 13:12:17;;;;;;;;;;;22.20;58.30;;;;;;5075264;28;19928;-60
2023/08/03 13:14:44;;;;;;;;;;;22.20;55.70;;;;;;5086255;28;19931;-60
2023/08/03 13:17:10;;;;;;;;;;;22.20;56.60;;;;;;5079690;28;19989;-62
2023/08/03 13:19:38;;;;;;;;;;;22.30;57.40;;;;;;5079483;28;19964;-56
2023/08/03 13:22:05;;;;;;;;;;;22.20;56.10;;;;;;5090286;28;19924;-59
2023/08/03 13:24:32;;;;;;;;;;;22.20;57.60;;;;;;5074418;28;20034;-58
2023/08/03 13:27:13;;;;;;;;;;;22.10;57.20;;;;;;5074860;28;19936;-57
2023/08/03 13:29:44;;;;;;;;;;;22.00;57.40;;;;;;5080732;28;19930;-59
2023/08/03 13:32:11;;;;;;;;;;;22.00;56.80;;;;;;5076768;28;19930;-59
2023/08/03 13:34:38;;;;;;;;;;;21.90;56.90;;;;;;5075344;28;19932;-59
2023/08/03 13:37:07;;;;;;;;;;;21.90;56.10;;;;;;5077627;28;19990;-59
2023/08/03 13:39:34;;;;;;;;;;;21.90;58.20;;;;;;5071184;28;21523;-59
2023/08/03 13:42:01;;;;;;;;;;;21.80;58.00;;;;;;5077912;28;19962;-58
2023/08/03 13:44:28;;;;;;;;;;;21.80;57.80;;;;;;5077885;28;19928;-58
2023/08/03 13:46:55;;;;;;;;;;;21.80;58.10;;;;;;5075116;28;21737;-58
2023/08/03 13:49:23;;;;;;;;;;;21.80;57.50;;;;;;5075545;28;19931;-58
2023/08/03 13:51:50;;;;;;;;;;;21.70;58.70;;;;;;5070042;28;20015;-57
2023/08/03 13:54:17;;;;;;;;;;;21.70;58.90;;;;;;5068672;28;20015;-59
2023/08/03 13:56:44;;;;;;;;;;;21.70;59.50;;;;;;5078080;28;19963;-54
2023/08/03 13:59:12;;;;;;;;;;;21.60;59.40;;;;;;5072835;28;19938;-50
2023/08/03 14:01:40;;;;;;;;;;;21.50;60.10;;;;;;5078375;28;20520;-60
2023/08/03 14:04:08;;;;;;;;;;;21.50;60.10;;;;;;5071411;28;19924;-60
2023/08/03 14:06:36;;;;;;;;;;;21.60;66.60;;;;;;5073378;28;19959;-63
2023/08/03 14:09:23;;;;;;;;;;;21.80;75.50;;;;;;5070349;28;20395;-60
2023/08/03 14:11:51;;;;;;;;;;;22.20;78.40;;;;;;5075581;28;19924;-56
2023/08/03 14:14:21;;;;;;;;;;;22.50;79.20;;;;;;5075952;28;20392;-57
2023/08/03 14:16:51;;;;;;;;;;;22.90;79.30;;;;;;5080358;28;19924;-59
2023/08/03 14:19:22;;;;;;;;;;;23.20;79.10;;;;;;5074735;28;19967;-58
2023/08/03 14:21:50;;;;;;;;;;;23.50;78.40;;;;;;5071347;28;19932;-59
2023/08/03 14:24:20;;;;;;;;;;;23.80;78.00;;;;;;5075342;28;19964;-58
2023/08/03 14:26:50;;;;;;;;;;;24.10;77.60;;;;;;5072756;28;19934;-58
2023/08/03 14:29:17;;;;;;;;;;;24.30;76.90;;;;;;5073163;28;19932;-62